createdAt,value
2022-11-01T00:00:05.598Z,17.77
2022-11-01T00:00:44.469Z,17.58
2022-11-01T00:01:16.416Z,19.02
2022-11-01T00:01:49.663Z,18.30
2022-11-01T00:02:21.639Z,20.75
2022-11-01T00:02:53.453Z,19.52
2022-11-01T00:03:25.324Z,20.70
2022-11-01T00:03:57.406Z,18.45
2022-11-01T00:04:29.525Z,18.10
2022-11-01T00:05:01.550Z,18.10
2022-11-01T00:05:33.458Z,18.45
2022-11-01T00:06:05.585Z,19.73
2022-11-01T00:06:37.694Z,18.80
2022-11-01T00:07:09.680Z,17.45
2022-11-01T00:07:41.501Z,15.85
2022-11-01T00:08:13.378Z,18.45
2022-11-01T00:08:45.196Z,16.80
2022-11-01T00:09:17.763Z,21.05
2022-11-01T00:09:49.559Z,22.05
2022-11-01T00:10:21.352Z,18.65
2022-11-01T00:10:53.427Z,17.63
2022-11-01T00:11:25.257Z,19.23
2022-11-01T00:11:57.026Z,19.40
2022-11-01T00:12:30.747Z,22.52
2022-11-01T00:13:03.027Z,22.17
2022-11-01T00:13:35.070Z,32.55
2022-11-01T00:14:07.640Z,29.13
2022-11-01T00:14:39.503Z,36.45
2022-11-01T00:15:11.345Z,54.42
2022-11-01T00:15:43.382Z,26.95
2022-11-01T00:16:16.376Z,25.48
2022-11-01T00:16:48.760Z,32.53
2022-11-01T00:17:20.565Z,26.05
2022-11-01T00:17:52.476Z,23.30
2022-11-01T00:18:24.398Z,25.65
2022-11-01T00:18:56.197Z,19.23
2022-11-01T00:19:28.114Z,26.60
2022-11-01T00:19:59.925Z,20.67
2022-11-01T00:20:31.758Z,21.13
2022-11-01T00:21:03.710Z,23.13
2022-11-01T00:21:35.642Z,17.08
2022-11-01T00:22:07.571Z,18.27
2022-11-01T00:22:39.457Z,22.00
2022-11-01T00:23:11.320Z,26.15
2022-11-01T00:23:44.119Z,20.67
2022-11-01T00:24:15.937Z,23.10
2022-11-01T00:24:47.865Z,26.25
2022-11-01T00:25:19.774Z,21.80
2022-11-01T00:25:51.538Z,22.42
2022-11-01T00:26:24.515Z,20.38
2022-11-01T00:26:56.399Z,19.73
2022-11-01T00:27:28.228Z,24.33
2022-11-01T00:28:00.378Z,20.33
2022-11-01T00:28:33.574Z,21.92
2022-11-01T00:29:05.443Z,22.77
2022-11-01T00:29:37.355Z,21.52
2022-11-01T00:30:09.367Z,22.38
2022-11-01T00:30:41.431Z,21.50
2022-11-01T00:31:15.461Z,21.60
2022-11-01T00:31:47.308Z,35.50
2022-11-01T00:32:19.109Z,20.65
2022-11-01T00:32:50.903Z,28.13
2022-11-01T00:33:23.292Z,23.52
2022-11-01T00:33:55.688Z,23.08
2022-11-01T00:34:27.494Z,23.65
2022-11-01T00:34:59.476Z,17.70
2022-11-01T00:35:32.389Z,20.52
2022-11-01T00:36:05.633Z,29.58
2022-11-01T00:36:37.427Z,24.20
2022-11-01T00:37:09.204Z,26.65
2022-11-01T00:37:41.087Z,25.30
2022-11-01T00:38:13.885Z,27.67
2022-11-01T00:38:50.155Z,23.83
2022-11-01T00:39:21.897Z,20.92
2022-11-01T00:39:53.728Z,19.83
2022-11-01T00:40:26.156Z,18.55
2022-11-01T00:40:58.289Z,19.50
2022-11-01T00:41:30.171Z,21.63
2022-11-01T00:42:02.260Z,17.75
2022-11-01T00:42:34.106Z,22.15
2022-11-01T00:43:06.004Z,16.95
2022-11-01T00:43:38.185Z,22.08
2022-11-01T00:44:09.942Z,19.58
2022-11-01T00:44:41.712Z,19.30
2022-11-01T00:45:13.871Z,17.30
2022-11-01T00:45:46.102Z,15.82
2022-11-01T00:46:17.916Z,16.98
2022-11-01T00:46:49.718Z,16.45
2022-11-01T00:47:21.520Z,30.00
2022-11-01T00:47:53.899Z,23.60
2022-11-01T00:48:28.984Z,22.70
2022-11-01T00:49:00.959Z,19.45
2022-11-01T00:49:32.818Z,18.73
2022-11-01T00:50:04.943Z,17.80
2022-11-01T00:50:36.715Z,16.95
2022-11-01T00:51:08.585Z,19.42
2022-11-01T00:51:40.343Z,18.00
2022-11-01T00:52:12.170Z,20.88
2022-11-01T00:52:43.953Z,20.00
2022-11-01T00:53:15.701Z,18.60
2022-11-01T00:53:47.882Z,19.02
2022-11-01T00:54:19.698Z,16.73
2022-11-01T00:54:51.427Z,17.98
2022-11-01T00:55:23.167Z,18.17
2022-11-01T00:56:00.902Z,18.30
2022-11-01T00:56:32.699Z,18.67
2022-11-01T00:57:04.521Z,16.98
2022-11-01T00:57:36.289Z,20.27
2022-11-01T00:58:08.748Z,18.08
2022-11-01T00:58:41.242Z,18.27
2022-11-01T00:59:13.057Z,18.85
2022-11-01T00:59:44.948Z,18.90
2022-11-01T01:00:17.086Z,23.45
2022-11-01T01:00:48.917Z,16.00
2022-11-01T01:01:20.873Z,17.92
2022-11-01T01:01:52.922Z,17.23
2022-11-01T01:02:25.302Z,16.63
2022-11-01T01:02:57.170Z,18.98
2022-11-01T01:03:29.020Z,15.90
2022-11-01T01:04:00.953Z,19.02
2022-11-01T01:04:32.920Z,17.00
2022-11-01T01:05:05.976Z,17.63
2022-11-01T01:05:37.764Z,19.02
2022-11-01T01:06:09.512Z,17.45
2022-11-01T01:06:41.372Z,19.67
2022-11-01T01:07:13.922Z,17.25
2022-11-01T01:07:45.819Z,17.58
2022-11-01T01:08:17.933Z,17.35
2022-11-01T01:08:49.688Z,17.73
2022-11-01T01:09:21.561Z,17.83
2022-11-01T01:09:53.372Z,17.17
2022-11-01T01:10:25.467Z,16.48
2022-11-01T01:10:57.337Z,17.60
2022-11-01T01:11:29.507Z,18.50
2022-11-01T01:12:02.337Z,17.88
2022-11-01T01:12:35.408Z,17.30
2022-11-01T01:13:07.733Z,18.02
2022-11-01T01:13:39.550Z,16.73
2022-11-01T01:14:11.747Z,18.80
2022-11-01T01:14:43.614Z,20.15
2022-11-01T01:15:15.409Z,18.67
2022-11-01T01:15:47.399Z,17.08
2022-11-01T01:16:19.308Z,18.00
2022-11-01T01:16:51.188Z,17.55
2022-11-01T01:17:22.987Z,16.88
2022-11-01T01:17:54.920Z,17.08
2022-11-01T01:18:27.184Z,16.50
2022-11-01T01:18:59.170Z,17.25
2022-11-01T01:19:31.026Z,17.92
2022-11-01T01:20:03.338Z,18.38
2022-11-01T01:20:35.872Z,16.85
2022-11-01T01:21:08.014Z,17.50
2022-11-01T01:21:39.861Z,16.73
2022-11-01T01:22:11.867Z,17.58
2022-11-01T01:22:43.720Z,16.10
2022-11-01T01:23:15.592Z,17.52
2022-11-01T01:23:48.753Z,15.98
2022-11-01T01:24:20.676Z,15.07
2022-11-01T01:24:52.462Z,15.98
2022-11-01T01:25:24.438Z,16.70
2022-11-01T01:25:56.415Z,17.50
2022-11-01T01:26:28.226Z,17.20
2022-11-01T01:27:00.213Z,16.90
2022-11-01T01:27:32.096Z,16.45
2022-11-01T01:28:04.436Z,15.57
2022-11-01T01:28:41.797Z,16.42
2022-11-01T01:29:17.184Z,16.85
2022-11-01T01:29:49.117Z,15.82
2022-11-01T01:30:21.016Z,14.95
2022-11-01T01:30:52.819Z,17.38
2022-11-01T01:31:24.606Z,16.35
2022-11-01T01:31:56.488Z,17.85
2022-11-01T01:32:28.454Z,14.18
2022-11-01T01:33:00.344Z,15.80
2022-11-01T01:33:32.163Z,16.85
2022-11-01T01:34:04.052Z,14.65
2022-11-01T01:34:35.896Z,17.35
2022-11-01T01:35:08.646Z,16.48
2022-11-01T01:35:40.843Z,16.35
2022-11-01T01:36:12.624Z,14.63
2022-11-01T01:36:46.368Z,15.25
2022-11-01T01:37:18.228Z,15.82
2022-11-01T01:37:50.020Z,15.52
2022-11-01T01:38:21.802Z,16.33
2022-11-01T01:38:54.112Z,16.67
2022-11-01T01:39:25.952Z,16.90
2022-11-01T01:39:57.777Z,16.00
2022-11-01T01:40:29.614Z,16.42
2022-11-01T01:41:21.343Z,20.05
2022-11-01T01:41:56.028Z,15.23
2022-11-01T01:42:29.538Z,16.88
2022-11-01T01:43:01.729Z,15.35
2022-11-01T01:43:43.864Z,16.45
2022-11-01T01:44:47.418Z,13.88
2022-11-01T01:45:36.278Z,15.50
2022-11-01T01:46:08.153Z,15.55
2022-11-01T01:46:39.949Z,15.45
2022-11-01T01:47:21.592Z,15.38
2022-11-01T01:47:55.170Z,14.68
2022-11-01T01:48:27.550Z,16.70
2022-11-01T01:49:00.180Z,14.85
2022-11-01T01:49:32.199Z,14.88
2022-11-01T01:50:07.024Z,14.75
2022-11-01T01:50:45.307Z,14.85
2022-11-01T01:51:23.304Z,17.75
2022-11-01T01:51:55.408Z,15.63
2022-11-01T01:52:30.179Z,19.40
2022-11-01T01:53:17.455Z,16.27
2022-11-01T01:53:53.010Z,15.27
2022-11-01T01:54:24.925Z,16.20
2022-11-01T01:54:58.451Z,15.93
2022-11-01T01:55:39.852Z,14.90
2022-11-01T01:56:34.757Z,16.20
2022-11-01T01:57:07.687Z,14.75
2022-11-01T01:57:40.993Z,12.95
2022-11-01T01:58:15.752Z,16.15
2022-11-01T01:58:54.885Z,15.48
2022-11-01T01:59:27.305Z,15.38
2022-11-01T01:59:59.465Z,16.95
2022-11-01T02:00:31.411Z,15.57
2022-11-01T02:01:03.211Z,16.85
2022-11-01T02:01:37.714Z,14.45
2022-11-01T02:02:10.210Z,14.10
2022-11-01T02:02:44.150Z,15.32
2022-11-01T02:03:16.441Z,15.10
2022-11-01T02:03:49.015Z,15.00
2022-11-01T02:04:44.754Z,13.18
2022-11-01T02:05:32.435Z,15.00
2022-11-01T02:06:13.153Z,13.77
2022-11-01T02:06:45.889Z,16.50
2022-11-01T02:07:17.790Z,14.63
2022-11-01T02:07:50.108Z,16.33
2022-11-01T02:08:31.689Z,13.98
2022-11-01T02:09:05.461Z,15.60
2022-11-01T02:09:38.985Z,13.68
2022-11-01T02:10:14.512Z,18.73
2022-11-01T02:10:46.653Z,14.23
2022-11-01T02:11:19.369Z,14.18
2022-11-01T02:11:51.465Z,15.52
2022-11-01T02:12:30.277Z,13.73
2022-11-01T02:13:02.150Z,14.60
2022-11-01T02:13:34.788Z,13.55
2022-11-01T02:14:06.716Z,13.27
2022-11-01T02:14:42.364Z,14.35
2022-11-01T02:15:15.630Z,16.10
2022-11-01T02:15:55.030Z,13.70
2022-11-01T02:17:05.654Z,19.05
2022-11-01T02:17:49.390Z,13.27
2022-11-01T02:18:35.344Z,14.15
2022-11-01T02:19:30.813Z,14.18
2022-11-01T02:20:35.734Z,13.95
2022-11-01T02:21:35.718Z,14.57
2022-11-01T02:22:10.982Z,15.00
2022-11-01T02:23:12.581Z,15.27
2022-11-01T02:24:02.812Z,16.38
2022-11-01T02:25:10.712Z,13.45
2022-11-01T02:26:19.581Z,13.70
2022-11-01T02:26:57.265Z,15.18
2022-11-01T02:28:20.336Z,13.73
2022-11-01T02:29:11.000Z,15.02
2022-11-01T02:30:00.832Z,12.68
2022-11-01T02:30:45.043Z,15.02
2022-11-01T02:31:43.010Z,11.45
2022-11-01T02:32:25.937Z,14.60
2022-11-01T02:33:17.301Z,16.38
2022-11-01T02:33:56.530Z,15.75
2022-11-01T02:34:44.936Z,13.15
2022-11-01T02:35:28.527Z,15.02
2022-11-01T02:36:07.841Z,15.70
2022-11-01T02:36:58.151Z,14.98
2022-11-01T02:37:32.554Z,13.43
2022-11-01T02:38:36.489Z,14.20
2022-11-01T02:39:18.128Z,16.08
2022-11-01T02:39:55.791Z,14.05
2022-11-01T02:40:47.088Z,15.13
2022-11-01T02:41:33.771Z,12.88
2022-11-01T02:42:14.605Z,13.43
2022-11-01T02:42:52.754Z,13.45
2022-11-01T02:43:36.079Z,13.30
2022-11-01T02:44:15.640Z,15.38
2022-11-01T02:45:01.447Z,15.05
2022-11-01T02:45:42.701Z,15.00
2022-11-01T02:46:34.765Z,14.10
2022-11-01T02:47:08.403Z,15.30
2022-11-01T02:47:40.582Z,13.68
2022-11-01T02:48:12.887Z,14.82
2022-11-01T02:48:45.957Z,14.70
2022-11-01T02:49:20.403Z,16.17
2022-11-01T02:49:59.947Z,13.95
2022-11-01T02:50:56.000Z,15.27
2022-11-01T02:51:28.444Z,12.48
2022-11-01T02:52:02.199Z,16.17
2022-11-01T02:52:38.304Z,13.73
2022-11-01T02:53:10.656Z,15.05
2022-11-01T02:53:42.459Z,13.57
2022-11-01T02:54:45.464Z,13.32
2022-11-01T02:55:31.652Z,14.20
2022-11-01T02:56:03.548Z,15.52
2022-11-01T02:56:35.752Z,13.77
2022-11-01T02:57:39.064Z,16.25
2022-11-01T02:58:24.213Z,15.85
2022-11-01T02:58:56.968Z,13.75
2022-11-01T02:59:29.653Z,14.45
2022-11-01T03:00:19.064Z,13.13
2022-11-01T03:00:52.112Z,15.00
2022-11-01T03:01:27.659Z,14.43
2022-11-01T03:02:10.283Z,13.13
2022-11-01T03:02:44.983Z,14.10
2022-11-01T03:03:25.145Z,13.68
2022-11-01T03:03:58.902Z,14.85
2022-11-01T03:04:31.018Z,15.98
2022-11-01T03:05:04.271Z,14.65
2022-11-01T03:06:00.364Z,13.60
2022-11-01T03:06:46.971Z,15.35
2022-11-01T03:07:18.805Z,14.55
2022-11-01T03:08:01.876Z,13.18
2022-11-01T03:08:37.237Z,16.33
2022-11-01T03:09:12.031Z,14.70
2022-11-01T03:09:44.737Z,12.55
2022-11-01T03:10:19.394Z,13.80
2022-11-01T03:11:17.897Z,13.38
2022-11-01T03:11:57.919Z,11.85
2022-11-01T03:12:35.288Z,14.70
2022-11-01T03:13:29.183Z,17.83
2022-11-01T03:14:10.613Z,13.05
2022-11-01T03:14:48.686Z,14.20
2022-11-01T03:15:27.494Z,14.13
2022-11-01T03:16:29.636Z,13.35
2022-11-01T03:17:46.604Z,13.90
2022-11-01T03:18:29.710Z,13.82
2022-11-01T03:19:19.975Z,14.32
2022-11-01T03:20:03.190Z,14.02
2022-11-01T03:20:48.421Z,15.10
2022-11-01T03:21:26.077Z,13.35
2022-11-01T03:22:19.369Z,17.52
2022-11-01T03:23:01.254Z,14.50
2022-11-01T03:23:40.408Z,15.50
2022-11-01T03:24:24.794Z,14.10
2022-11-01T03:25:38.569Z,14.30
2022-11-01T03:26:13.829Z,13.82
2022-11-01T03:26:55.054Z,14.18
2022-11-01T03:27:42.182Z,13.70
2022-11-01T03:28:36.303Z,16.35
2022-11-01T03:29:11.726Z,14.02
2022-11-01T03:29:49.739Z,15.63
2022-11-01T03:30:21.937Z,16.75
2022-11-01T03:31:03.649Z,14.63
2022-11-01T03:31:38.569Z,12.85
2022-11-01T03:32:10.945Z,14.25
2022-11-01T03:32:47.070Z,13.73
2022-11-01T03:33:20.725Z,13.23
2022-11-01T03:33:56.476Z,13.20
2022-11-01T03:34:31.585Z,14.77
2022-11-01T03:35:05.143Z,12.73
2022-11-01T03:35:40.959Z,16.27
2022-11-01T03:36:18.073Z,15.85
2022-11-01T03:36:57.358Z,15.82
2022-11-01T03:37:31.965Z,13.35
2022-11-01T03:38:10.740Z,17.33
2022-11-01T03:39:05.024Z,17.25
2022-11-01T03:39:49.660Z,15.00
2022-11-01T03:40:24.706Z,14.73
2022-11-01T03:41:01.899Z,13.93
2022-11-01T03:41:39.075Z,16.75
2022-11-01T03:42:15.845Z,14.05
2022-11-01T03:42:52.664Z,18.20
2022-11-01T03:43:27.477Z,13.32
2022-11-01T03:44:00.105Z,17.17
2022-11-01T03:44:41.341Z,17.65
2022-11-01T03:45:16.889Z,14.70
2022-11-01T03:45:48.777Z,14.32
2022-11-01T03:46:20.876Z,13.48
2022-11-01T03:46:52.788Z,13.35
2022-11-01T03:47:25.552Z,14.35
2022-11-01T03:47:57.407Z,14.15
2022-11-01T03:48:29.211Z,15.13
2022-11-01T03:49:01.069Z,14.45
2022-11-01T03:49:33.061Z,15.40
2022-11-01T03:50:21.569Z,15.80
2022-11-01T03:50:57.442Z,12.90
2022-11-01T03:51:29.287Z,15.40
2022-11-01T03:52:01.060Z,15.02
2022-11-01T03:52:32.807Z,15.40
2022-11-01T03:53:04.608Z,16.83
2022-11-01T03:53:36.509Z,14.88
2022-11-01T03:54:11.031Z,13.82
2022-11-01T03:54:43.078Z,15.85
2022-11-01T03:55:19.983Z,13.02
2022-11-01T03:55:51.841Z,14.75
2022-11-01T03:56:23.777Z,14.20
2022-11-01T03:56:56.084Z,13.63
2022-11-01T03:57:29.320Z,14.80
2022-11-01T03:58:01.599Z,17.40
2022-11-01T03:58:42.463Z,19.02
2022-11-01T03:59:14.491Z,16.00
2022-11-01T03:59:46.237Z,17.65
2022-11-01T04:00:24.089Z,18.58
2022-11-01T04:00:55.921Z,18.42
2022-11-01T04:01:27.881Z,13.68
2022-11-01T04:02:03.305Z,14.88
2022-11-01T04:02:38.565Z,16.17
2022-11-01T04:03:11.569Z,15.40
2022-11-01T04:03:44.178Z,13.30
2022-11-01T04:04:16.016Z,17.10
2022-11-01T04:04:47.847Z,20.08
2022-11-01T04:05:20.743Z,16.05
2022-11-01T04:05:52.674Z,16.20
2022-11-01T04:06:24.639Z,16.77
2022-11-01T04:06:56.505Z,12.32
2022-11-01T04:07:28.234Z,14.07
2022-11-01T04:08:00.316Z,14.68
2022-11-01T04:08:32.830Z,12.90
2022-11-01T04:09:04.666Z,14.45
2022-11-01T04:09:36.433Z,15.05
2022-11-01T04:10:08.547Z,13.05
2022-11-01T04:10:40.462Z,14.18
2022-11-01T04:11:12.335Z,14.52
2022-11-01T04:11:44.132Z,15.52
2022-11-01T04:12:16.063Z,13.75
2022-11-01T04:12:49.582Z,16.58
2022-11-01T04:13:21.536Z,15.85
2022-11-01T04:14:13.330Z,16.10
2022-11-01T04:15:03.551Z,15.70
2022-11-01T04:15:54.093Z,14.95
2022-11-01T04:16:44.550Z,16.00
2022-11-01T04:17:34.656Z,16.67
2022-11-01T04:18:25.183Z,13.27
2022-11-01T04:19:15.501Z,19.95
2022-11-01T04:20:17.325Z,15.68
2022-11-01T04:20:49.568Z,13.90
2022-11-01T04:21:24.166Z,15.38
2022-11-01T04:21:56.060Z,16.80
2022-11-01T04:22:27.943Z,15.20
2022-11-01T04:23:07.118Z,16.95
2022-11-01T04:23:39.510Z,19.70
2022-11-01T04:24:11.365Z,15.68
2022-11-01T04:24:43.195Z,14.02
2022-11-01T04:25:15.113Z,15.43
2022-11-01T04:25:47.373Z,14.27
2022-11-01T04:26:23.698Z,14.75
2022-11-01T04:26:55.496Z,15.63
2022-11-01T04:27:27.238Z,15.82
2022-11-01T04:27:59.355Z,16.52
2022-11-01T04:28:31.350Z,15.65
2022-11-01T04:29:03.516Z,16.58
2022-11-01T04:29:35.759Z,15.07
2022-11-01T04:30:07.903Z,15.70
2022-11-01T04:30:39.940Z,16.15
2022-11-01T04:31:11.787Z,16.00
2022-11-01T04:31:43.600Z,13.73
2022-11-01T04:32:15.428Z,17.45
2022-11-01T04:32:47.199Z,16.45
2022-11-01T04:33:19.238Z,14.30
2022-11-01T04:33:51.389Z,14.40
2022-11-01T04:34:42.236Z,14.10
2022-11-01T04:35:14.129Z,16.27
2022-11-01T04:35:46.601Z,14.05
2022-11-01T04:36:18.540Z,16.88
2022-11-01T04:36:50.378Z,16.38
2022-11-01T04:37:22.177Z,17.52
2022-11-01T04:37:58.252Z,16.67
2022-11-01T04:38:30.140Z,18.00
2022-11-01T04:39:01.977Z,17.30
2022-11-01T04:39:34.032Z,14.95
2022-11-01T04:40:09.703Z,15.23
2022-11-01T04:40:43.175Z,15.40
2022-11-01T04:41:17.505Z,16.50
2022-11-01T04:41:49.304Z,14.73
2022-11-01T04:42:21.187Z,14.77
2022-11-01T04:42:56.138Z,15.23
2022-11-01T04:43:28.085Z,17.48
2022-11-01T04:43:59.998Z,13.77
2022-11-01T04:44:31.849Z,15.07
2022-11-01T04:45:08.627Z,13.45
2022-11-01T04:45:40.825Z,15.60
2022-11-01T04:46:12.749Z,13.98
2022-11-01T04:46:44.616Z,15.18
2022-11-01T04:47:16.420Z,16.10
2022-11-01T04:47:52.387Z,14.85
2022-11-01T04:48:26.120Z,15.50
2022-11-01T04:48:57.940Z,15.10
2022-11-01T04:49:29.779Z,15.02
2022-11-01T04:50:01.615Z,14.65
2022-11-01T04:50:35.238Z,15.82
2022-11-01T04:51:08.265Z,15.07
2022-11-01T04:51:41.546Z,13.93
2022-11-01T04:52:13.573Z,13.32
2022-11-01T04:52:45.526Z,13.73
2022-11-01T04:53:17.455Z,16.95
2022-11-01T04:53:49.211Z,14.18
2022-11-01T04:54:20.974Z,14.20
2022-11-01T04:54:52.855Z,14.80
2022-11-01T04:55:24.661Z,13.65
2022-11-01T04:55:56.486Z,15.80
2022-11-01T04:56:28.296Z,14.55
2022-11-01T04:57:00.458Z,14.07
2022-11-01T04:57:38.515Z,13.93
2022-11-01T04:58:11.032Z,14.38
2022-11-01T04:58:46.150Z,14.50
2022-11-01T04:59:18.364Z,14.27
2022-11-01T04:59:51.901Z,11.68
2022-11-01T05:00:24.074Z,13.75
2022-11-01T05:00:55.976Z,14.15
2022-11-01T05:01:27.900Z,13.07
2022-11-01T05:02:00.034Z,14.80
2022-11-01T05:02:31.937Z,13.45
2022-11-01T05:03:06.159Z,12.10
2022-11-01T05:03:38.149Z,13.73
2022-11-01T05:04:09.948Z,13.15
2022-11-01T05:04:41.714Z,13.43
2022-11-01T05:05:13.539Z,12.30
2022-11-01T05:05:45.304Z,13.30
2022-11-01T05:06:17.587Z,14.93
2022-11-01T05:06:49.465Z,11.07
2022-11-01T05:07:21.261Z,13.27
2022-11-01T05:08:33.569Z,11.52
2022-11-01T05:09:05.334Z,11.30
2022-11-01T05:09:37.160Z,13.50
2022-11-01T05:10:09.731Z,14.07
2022-11-01T05:10:44.300Z,11.13
2022-11-01T05:11:16.134Z,12.20
2022-11-01T05:11:47.926Z,10.70
2022-11-01T05:12:19.698Z,11.95
2022-11-01T05:12:51.521Z,12.13
2022-11-01T05:13:23.842Z,13.20
2022-11-01T05:13:55.963Z,15.93
2022-11-01T05:14:27.738Z,14.35
2022-11-01T05:14:59.675Z,11.88
2022-11-01T05:15:32.365Z,13.02
2022-11-01T05:16:21.071Z,14.02
2022-11-01T05:16:57.315Z,13.45
2022-11-01T05:17:29.212Z,11.73
2022-11-01T05:18:01.960Z,12.18
2022-11-01T05:18:33.786Z,16.95
2022-11-01T05:19:06.723Z,13.65
2022-11-01T05:19:38.542Z,15.38
2022-11-01T05:20:10.944Z,13.30
2022-11-01T05:20:42.795Z,10.93
2022-11-01T05:21:14.698Z,14.60
2022-11-01T05:21:46.520Z,13.43
2022-11-01T05:22:18.376Z,12.43
2022-11-01T05:22:50.171Z,11.40
2022-11-01T05:23:22.020Z,16.55
2022-11-01T05:23:53.772Z,15.35
2022-11-01T05:24:25.819Z,12.90
2022-11-01T05:24:57.740Z,11.63
2022-11-01T05:25:32.600Z,13.77
2022-11-01T05:26:07.257Z,10.20
2022-11-01T05:26:39.442Z,12.90
2022-11-01T05:27:11.292Z,13.60
2022-11-01T05:27:43.425Z,12.25
2022-11-01T05:28:15.294Z,10.32
2022-11-01T05:28:47.984Z,13.70
2022-11-01T05:29:24.846Z,11.52
2022-11-01T05:30:05.792Z,14.57
2022-11-01T05:30:38.382Z,15.25
2022-11-01T05:31:10.901Z,13.10
2022-11-01T05:31:42.782Z,10.75
2022-11-01T05:32:14.618Z,11.30
2022-11-01T05:32:47.214Z,11.57
2022-11-01T05:33:19.058Z,11.93
2022-11-01T05:33:50.995Z,11.88
2022-11-01T05:34:22.748Z,13.27
2022-11-01T05:34:54.515Z,14.10
2022-11-01T05:35:27.924Z,11.93
2022-11-01T05:36:02.849Z,15.48
2022-11-01T05:36:34.680Z,13.38
2022-11-01T05:37:06.433Z,13.05
2022-11-01T05:37:38.228Z,11.52
2022-11-01T05:38:10.242Z,12.73
2022-11-01T05:38:42.722Z,15.75
2022-11-01T05:39:14.573Z,14.43
2022-11-01T05:39:46.360Z,12.13
2022-11-01T05:40:18.326Z,10.70
2022-11-01T05:40:50.581Z,10.50
2022-11-01T05:41:22.445Z,15.40
2022-11-01T05:41:56.840Z,14.45
2022-11-01T05:42:31.793Z,13.20
2022-11-01T05:43:04.184Z,13.63
2022-11-01T05:43:36.322Z,12.05
2022-11-01T05:44:08.153Z,13.07
2022-11-01T05:44:39.968Z,10.57
2022-11-01T05:45:11.852Z,12.63
2022-11-01T05:45:44.177Z,10.35
2022-11-01T05:46:16.112Z,12.00
2022-11-01T05:46:47.967Z,13.75
2022-11-01T05:47:19.760Z,13.23
2022-11-01T05:47:51.609Z,10.82
2022-11-01T05:48:23.428Z,13.63
2022-11-01T05:48:55.268Z,14.05
2022-11-01T05:49:27.045Z,13.23
2022-11-01T05:49:58.859Z,11.85
2022-11-01T05:50:30.915Z,13.35
2022-11-01T05:51:05.964Z,13.35
2022-11-01T05:51:39.222Z,14.18
2022-11-01T05:52:11.945Z,15.35
2022-11-01T05:52:44.122Z,12.32
2022-11-01T05:53:15.953Z,18.67
2022-11-01T05:53:51.007Z,13.55
2022-11-01T05:54:22.923Z,11.95
2022-11-01T05:54:54.779Z,12.82
2022-11-01T05:55:26.575Z,14.20
2022-11-01T05:55:59.668Z,11.27
2022-11-01T05:56:31.545Z,10.65
2022-11-01T05:57:05.587Z,11.27
2022-11-01T05:57:37.698Z,12.93
2022-11-01T05:58:09.539Z,12.55
2022-11-01T05:58:41.654Z,9.85
2022-11-01T05:59:13.567Z,14.30
2022-11-01T06:00:05.320Z,11.32
2022-11-01T06:00:46.188Z,13.07
2022-11-01T06:01:18.283Z,13.45
2022-11-01T06:01:50.297Z,10.82
2022-11-01T06:02:22.271Z,13.43
2022-11-01T06:02:54.292Z,11.88
2022-11-01T06:03:26.404Z,11.98
2022-11-01T06:04:01.875Z,14.07
2022-11-01T06:04:33.773Z,10.13
2022-11-01T06:05:05.922Z,9.82
2022-11-01T06:05:38.822Z,10.52
2022-11-01T06:06:11.901Z,11.30
2022-11-01T06:06:43.670Z,10.13
2022-11-01T06:07:15.550Z,11.63
2022-11-01T06:07:47.471Z,12.23
2022-11-01T06:08:20.099Z,9.73
2022-11-01T06:08:51.899Z,11.40
2022-11-01T06:09:23.636Z,12.05
2022-11-01T06:09:55.483Z,12.30
2022-11-01T06:10:28.139Z,11.65
2022-11-01T06:11:04.631Z,11.45
2022-11-01T06:11:41.392Z,10.38
2022-11-01T06:12:13.582Z,11.20
2022-11-01T06:12:45.457Z,10.27
2022-11-01T06:13:17.764Z,11.27
2022-11-01T06:14:01.959Z,9.45
2022-11-01T06:15:12.339Z,13.98
2022-11-01T06:15:44.771Z,11.68
2022-11-01T06:16:16.599Z,10.50
2022-11-01T06:16:48.464Z,11.35
2022-11-01T06:17:20.214Z,10.02
2022-11-01T06:17:58.836Z,13.32
2022-11-01T06:18:31.246Z,12.48
2022-11-01T06:19:03.073Z,10.52
2022-11-01T06:19:34.897Z,10.32
2022-11-01T06:20:07.150Z,13.85
2022-11-01T06:20:39.003Z,11.30
2022-11-01T06:21:10.835Z,11.55
2022-11-01T06:21:42.797Z,10.10
2022-11-01T06:22:14.786Z,10.77
2022-11-01T06:22:46.560Z,10.35
2022-11-01T06:23:18.354Z,11.55
2022-11-01T06:23:50.639Z,12.63
2022-11-01T06:24:22.479Z,11.52
2022-11-01T06:24:54.322Z,11.60
2022-11-01T06:25:27.545Z,10.43
2022-11-01T06:26:01.030Z,11.43
2022-11-01T06:26:32.846Z,11.00
2022-11-01T06:27:07.428Z,15.85
2022-11-01T06:27:41.892Z,10.75
2022-11-01T06:28:13.869Z,10.75
2022-11-01T06:28:46.748Z,13.43
2022-11-01T06:29:18.628Z,10.98
2022-11-01T06:29:50.840Z,11.32
2022-11-01T06:30:24.065Z,14.63
2022-11-01T06:31:02.332Z,10.45
2022-11-01T06:31:34.183Z,11.60
2022-11-01T06:32:06.181Z,10.27
2022-11-01T06:32:38.891Z,12.40
2022-11-01T06:33:11.568Z,12.60
2022-11-01T06:33:43.471Z,13.55
2022-11-01T06:34:15.314Z,10.52
2022-11-01T06:34:47.172Z,14.82
2022-11-01T06:35:18.992Z,11.07
2022-11-01T06:35:50.871Z,10.75
2022-11-01T06:36:23.882Z,9.27
2022-11-01T06:36:55.647Z,13.43
2022-11-01T06:37:27.485Z,11.55
2022-11-01T06:38:04.542Z,12.13
2022-11-01T06:38:36.819Z,13.07
2022-11-01T06:39:08.925Z,10.20
2022-11-01T06:39:40.785Z,11.70
2022-11-01T06:40:13.251Z,11.15
2022-11-01T06:40:46.791Z,10.73
2022-11-01T06:41:18.677Z,10.95
2022-11-01T06:41:51.790Z,13.35
2022-11-01T06:42:24.766Z,12.82
2022-11-01T06:43:05.293Z,10.57
2022-11-01T06:43:37.379Z,12.82
2022-11-01T06:44:09.239Z,9.98
2022-11-01T06:44:41.122Z,13.68
2022-11-01T06:45:13.174Z,9.60
2022-11-01T06:45:45.447Z,11.65
2022-11-01T06:46:17.293Z,10.55
2022-11-01T06:46:49.219Z,12.18
2022-11-01T06:47:22.167Z,10.88
2022-11-01T06:48:22.090Z,11.18
2022-11-01T06:48:57.311Z,10.27
2022-11-01T06:49:30.482Z,10.30
2022-11-01T06:50:02.340Z,10.43
2022-11-01T06:50:34.136Z,9.18
2022-11-01T06:51:06.233Z,10.13
2022-11-01T06:51:38.143Z,14.50
2022-11-01T06:52:09.978Z,12.10
2022-11-01T06:52:41.764Z,10.05
2022-11-01T06:53:13.707Z,11.45
2022-11-01T06:53:45.608Z,11.52
2022-11-01T06:54:17.609Z,11.43
2022-11-01T06:54:49.422Z,12.85
2022-11-01T06:55:21.201Z,9.43
2022-11-01T06:55:53.143Z,9.93
2022-11-01T06:56:24.959Z,10.85
2022-11-01T06:56:57.035Z,9.98
2022-11-01T06:57:28.832Z,10.30
2022-11-01T06:58:05.908Z,10.57
2022-11-01T06:58:43.684Z,11.93
2022-11-01T06:59:16.851Z,8.80
2022-11-01T06:59:48.786Z,9.57
2022-11-01T07:00:20.617Z,12.82
2022-11-01T07:00:52.707Z,11.77
2022-11-01T07:01:25.756Z,13.38
2022-11-01T07:01:57.815Z,11.40
2022-11-01T07:02:30.195Z,10.00
2022-11-01T07:03:07.271Z,9.90
2022-11-01T07:03:39.051Z,13.02
2022-11-01T07:04:43.673Z,13.85
2022-11-01T07:05:15.722Z,10.45
2022-11-01T07:05:49.520Z,13.15
2022-11-01T07:06:22.052Z,14.13
2022-11-01T07:06:54.032Z,11.00
2022-11-01T07:07:26.018Z,9.27
2022-11-01T07:08:00.432Z,9.68
2022-11-01T07:08:32.596Z,12.30
2022-11-01T07:09:04.494Z,12.02
2022-11-01T07:09:36.319Z,12.27
2022-11-01T07:10:09.179Z,11.52
2022-11-01T07:10:43.180Z,12.73
2022-11-01T07:11:14.956Z,11.68
2022-11-01T07:11:46.842Z,9.40
2022-11-01T07:12:19.155Z,11.15
2022-11-01T07:12:51.824Z,11.32
2022-11-01T07:13:23.713Z,9.70
2022-11-01T07:13:55.507Z,11.68
2022-11-01T07:14:27.415Z,12.68
2022-11-01T07:14:59.200Z,7.40
2022-11-01T07:15:31.455Z,11.20
2022-11-01T07:16:04.993Z,11.75
2022-11-01T07:16:36.922Z,10.60
2022-11-01T07:17:08.713Z,10.77
2022-11-01T07:17:40.587Z,9.52
2022-11-01T07:18:12.577Z,17.23
2022-11-01T07:18:45.010Z,12.65
2022-11-01T07:19:16.837Z,19.00
2022-11-01T07:19:48.798Z,12.10
2022-11-01T07:20:20.902Z,16.15
2022-11-01T07:20:52.782Z,18.58
2022-11-01T07:21:26.119Z,16.92
2022-11-01T07:21:57.982Z,21.48
2022-11-01T07:22:29.786Z,14.95
2022-11-01T07:23:04.436Z,13.13
2022-11-01T07:23:36.578Z,12.90
2022-11-01T07:24:08.365Z,23.45
2022-11-01T07:24:40.330Z,15.75
2022-11-01T07:25:12.102Z,15.75
2022-11-01T07:25:44.387Z,18.70
2022-11-01T07:26:16.641Z,16.17
2022-11-01T07:26:48.996Z,19.00
2022-11-01T07:27:20.904Z,24.10
2022-11-01T07:27:52.654Z,18.35
2022-11-01T07:28:24.812Z,15.25
2022-11-01T07:28:57.110Z,18.60
2022-11-01T07:29:30.189Z,20.02
2022-11-01T07:30:02.723Z,23.88
2022-11-01T07:30:35.310Z,20.30
2022-11-01T07:31:07.706Z,20.15